DSM2011 SAZY-SABE
Flight info
| Callsign | DSM2011 |
|---|---|
| Flight time | N/A |
| Altitude | 37000 |
| Route | ISMIL1D ISMIL UT655 ASADA ASADA8Q |
| Aircraft | A319/M-SDE3FGHIRWY/LB1 |
Departure
| Time | 2026-05-04 21:50 |
|---|---|
| Airport | Aviador C. Campos Airport (SAZY) |
Arrival
| Time | N/A |
|---|---|
| Airport | Aeroparque Jorge Newbery (SABE) |
| Time | Latitude | Longitude | Altitude | Speed | Heading |
|---|---|---|---|---|---|
| 2026-05-04 21:38 | -40.08088 | -71.14291 | 2593 ft | 0 kts | 69° |
| 2026-05-04 21:44 | -40.08086 | -71.14284 | 2592 ft | 5 kts | 69° |
| 2026-05-04 21:45 | -40.08054 | -71.14220 | 2591 ft | 9 kts | 43° |
| 2026-05-04 21:45 | -40.07999 | -71.14168 | 2590 ft | 9 kts | 33° |
| 2026-05-04 21:45 | -40.07927 | -71.14106 | 2587 ft | 13 kts | 32° |
| 2026-05-04 21:45 | -40.07844 | -71.14038 | 2584 ft | 14 kts | 31° |
| 2026-05-04 21:46 | -40.07760 | -71.13960 | 2581 ft | 14 kts | 39° |
| 2026-05-04 21:46 | -40.07676 | -71.13881 | 2578 ft | 14 kts | 30° |
| 2026-05-04 21:46 | -40.07570 | -71.13779 | 2574 ft | 27 kts | 51° |
| 2026-05-04 21:46 | -40.07476 | -71.13524 | 2570 ft | 31 kts | 67° |
| 2026-05-04 21:47 | -40.07395 | -71.13264 | 2566 ft | 29 kts | 67° |
| 2026-05-04 21:47 | -40.07312 | -71.13024 | 2561 ft | 28 kts | 65° |
| 2026-05-04 21:47 | -40.07244 | -71.12785 | 2554 ft | 27 kts | 72° |
| 2026-05-04 21:47 | -40.07181 | -71.12569 | 2549 ft | 23 kts | 71° |
| 2026-05-04 21:48 | -40.07160 | -71.12461 | 2547 ft | 8 kts | 65° |
| 2026-05-04 21:48 | -40.07153 | -71.12484 | 2547 ft | 3 kts | 246° |
| 2026-05-04 21:48 | -40.07153 | -71.12485 | 2547 ft | 0 kts | 245° |
| 2026-05-04 21:50 | -40.07192 | -71.12605 | 2550 ft | 44 kts | 250° |
| 2026-05-04 21:50 | -40.07389 | -71.13253 | 2566 ft | 107 kts | 249° |
| 2026-05-04 21:50 | -40.07742 | -71.14381 | 2618 ft | 156 kts | 251° |
| 2026-05-04 21:50 | -40.08129 | -71.15699 | 3256 ft | 155 kts | 250° |
| 2026-05-04 21:51 | -40.08516 | -71.17003 | 3902 ft | 159 kts | 249° |
| 2026-05-04 21:51 | -40.08953 | -71.18410 | 4271 ft | 177 kts | 247° |
| 2026-05-04 21:51 | -40.09450 | -71.19988 | 4644 ft | 198 kts | 246° |
| 2026-05-04 21:51 | -40.09985 | -71.21721 | 5151 ft | 215 kts | 247° |
| 2026-05-04 21:52 | -40.10525 | -71.23527 | 5895 ft | 220 kts | 246° |
| 2026-05-04 21:52 | -40.11280 | -71.26023 | 6854 ft | 227 kts | 246° |
| 2026-05-04 21:52 | -40.11662 | -71.27280 | 7343 ft | 230 kts | 245° |
| 2026-05-04 21:52 | -40.12172 | -71.29132 | 8029 ft | 236 kts | 255° |
| 2026-05-04 21:53 | -40.12119 | -71.31274 | 8697 ft | 248 kts | 285° |
| 2026-05-04 21:53 | -40.11208 | -71.33188 | 9371 ft | 260 kts | 316° |
| 2026-05-04 21:53 | -40.09634 | -71.34268 | 10034 ft | 268 kts | 349° |
| 2026-05-04 21:53 | -40.07803 | -71.34117 | 10697 ft | 271 kts | 23° |
| 2026-05-04 21:54 | -40.06247 | -71.32806 | 11429 ft | 268 kts | 43° |
| 2026-05-04 21:54 | -40.04923 | -71.31267 | 12137 ft | 269 kts | 44° |
| 2026-05-04 21:54 | -40.03519 | -71.29625 | 12836 ft | 271 kts | 44° |
| 2026-05-04 21:54 | -40.02103 | -71.28026 | 13478 ft | 275 kts | 43° |
| 2026-05-04 21:55 | -40.00671 | -71.26397 | 14102 ft | 278 kts | 46° |
| 2026-05-04 21:55 | -39.99332 | -71.24635 | 14665 ft | 282 kts | 51° |
| 2026-05-04 21:55 | -39.98026 | -71.22667 | 14970 ft | 298 kts | 52° |
| 2026-05-04 21:55 | -39.96670 | -71.20565 | 15259 ft | 314 kts | 53° |
| 2026-05-04 21:56 | -39.95250 | -71.18364 | 15540 ft | 330 kts | 52° |
| 2026-05-04 21:56 | -39.93718 | -71.16003 | 15861 ft | 345 kts | 52° |
| 2026-05-04 21:56 | -39.92161 | -71.13616 | 16406 ft | 351 kts | 52° |
| 2026-05-04 21:56 | -39.90600 | -71.11230 | 17032 ft | 354 kts | 52° |
| 2026-05-04 21:57 | -39.88967 | -71.08723 | 17642 ft | 358 kts | 54° |
| 2026-05-04 21:57 | -39.87522 | -71.06080 | 18216 ft | 359 kts | 62° |
| 2026-05-04 21:57 | -39.86353 | -71.03181 | 18786 ft | 360 kts | 70° |
| 2026-05-04 21:57 | -39.85524 | -71.00172 | 19380 ft | 359 kts | 78° |
| 2026-05-04 21:58 | -39.84961 | -70.96990 | 20055 ft | 358 kts | 82° |
| 2026-05-04 21:58 | -39.84365 | -70.93881 | 20698 ft | 360 kts | 77° |
| 2026-05-04 21:58 | -39.83540 | -70.90817 | 21323 ft | 361 kts | 73° |
| 2026-05-04 21:58 | -39.82635 | -70.87774 | 21932 ft | 362 kts | 72° |
| 2026-05-04 21:59 | -39.81711 | -70.84745 | 22492 ft | 363 kts | 72° |
| 2026-05-04 21:59 | -39.80772 | -70.81692 | 23051 ft | 364 kts | 71° |
| 2026-05-04 21:59 | -39.79829 | -70.78638 | 23599 ft | 365 kts | 71° |
| 2026-05-04 21:59 | -39.78882 | -70.75581 | 24087 ft | 367 kts | 72° |
| 2026-05-04 22:00 | -39.77925 | -70.72498 | 24519 ft | 371 kts | 72° |
| 2026-05-04 22:00 | -39.76955 | -70.69366 | 24935 ft | 374 kts | 72° |
| 2026-05-04 22:00 | -39.75979 | -70.66216 | 25341 ft | 378 kts | 72° |
| 2026-05-04 22:00 | -39.74999 | -70.63063 | 25734 ft | 381 kts | 72° |
| 2026-05-04 22:01 | -39.74008 | -70.59877 | 26114 ft | 385 kts | 73° |
| 2026-05-04 22:01 | -39.72982 | -70.56653 | 26483 ft | 390 kts | 71° |
| 2026-05-04 22:01 | -39.71841 | -70.53440 | 26844 ft | 394 kts | 70° |
| 2026-05-04 22:01 | -39.70662 | -70.50191 | 27199 ft | 398 kts | 70° |
| 2026-05-04 22:02 | -39.69484 | -70.46952 | 27538 ft | 401 kts | 70° |
| 2026-05-04 22:02 | -39.68287 | -70.43661 | 27872 ft | 405 kts | 70° |
| 2026-05-04 22:02 | -39.67090 | -70.40370 | 28194 ft | 409 kts | 70° |
| 2026-05-04 22:02 | -39.65873 | -70.37028 | 28513 ft | 412 kts | 70° |
| 2026-05-04 22:03 | -39.64643 | -70.33653 | 28848 ft | 415 kts | 70° |
| 2026-05-04 22:03 | -39.63402 | -70.30241 | 29161 ft | 419 kts | 70° |
| 2026-05-04 22:03 | -39.62163 | -70.26837 | 29453 ft | 423 kts | 70° |
| 2026-05-04 22:03 | -39.60891 | -70.23348 | 29746 ft | 426 kts | 70° |
| 2026-05-04 22:04 | -39.59631 | -70.19900 | 30028 ft | 430 kts | 70° |
| 2026-05-04 22:04 | -39.58351 | -70.16406 | 30305 ft | 433 kts | 70° |
| 2026-05-04 22:04 | -39.57051 | -70.12860 | 30592 ft | 437 kts | 70° |
| 2026-05-04 22:04 | -39.55752 | -70.09325 | 30911 ft | 439 kts | 70° |
| 2026-05-04 22:05 | -39.54430 | -70.05729 | 31188 ft | 442 kts | 70° |
| 2026-05-04 22:05 | -39.53109 | -70.02138 | 31439 ft | 445 kts | 70° |
| 2026-05-04 22:05 | -39.51765 | -69.98494 | 31689 ft | 449 kts | 69° |
| 2026-05-04 22:05 | -39.50420 | -69.94850 | 31936 ft | 452 kts | 69° |
| 2026-05-04 22:06 | -39.49072 | -69.91200 | 32177 ft | 455 kts | 69° |
| 2026-05-04 22:06 | -39.47699 | -69.87490 | 32419 ft | 458 kts | 69° |
| 2026-05-04 22:06 | -39.46318 | -69.83762 | 32656 ft | 462 kts | 69° |
| 2026-05-04 22:06 | -39.44936 | -69.80039 | 32922 ft | 464 kts | 69° |
| 2026-05-04 22:07 | -39.43540 | -69.76282 | 33243 ft | 464 kts | 69° |
| 2026-05-04 22:07 | -39.42126 | -69.72482 | 33555 ft | 465 kts | 69° |
| 2026-05-04 22:07 | -39.40736 | -69.68750 | 33839 ft | 467 kts | 69° |
| 2026-05-04 22:07 | -39.39326 | -69.64969 | 34119 ft | 468 kts | 69° |
| 2026-05-04 22:08 | -39.37907 | -69.61176 | 34573 ft | 464 kts | 69° |
| 2026-05-04 22:08 | -39.36572 | -69.57612 | 35100 ft | 458 kts | 69° |
| 2026-05-04 22:08 | -39.35148 | -69.53813 | 35491 ft | 456 kts | 69° |
| 2026-05-04 22:08 | -39.33749 | -69.50081 | 35721 ft | 457 kts | 69° |
| 2026-05-04 22:09 | -39.32373 | -69.46409 | 35916 ft | 459 kts | 69° |
| 2026-05-04 22:09 | -39.30979 | -69.42696 | 36132 ft | 460 kts | 69° |
| 2026-05-04 22:09 | -39.29575 | -69.38962 | 36357 ft | 461 kts | 69° |
| 2026-05-04 22:09 | -39.28179 | -69.35255 | 36569 ft | 462 kts | 69° |
| 2026-05-04 22:10 | -39.26779 | -69.31535 | 36749 ft | 463 kts | 68° |
| 2026-05-04 22:10 | -39.24016 | -69.24202 | 36794 ft | 465 kts | 68° |
| 2026-05-04 22:11 | -39.21162 | -69.16662 | 36799 ft | 465 kts | 68° |
| 2026-05-04 22:11 | -39.18325 | -69.09193 | 36801 ft | 465 kts | 68° |
| 2026-05-04 22:12 | -39.15487 | -69.01756 | 36801 ft | 464 kts | 69° |
| 2026-05-04 22:12 | -39.12636 | -68.94286 | 36801 ft | 464 kts | 70° |
| 2026-05-04 22:13 | -39.09802 | -68.86884 | 36802 ft | 462 kts | 70° |
| 2026-05-04 22:13 | -39.06965 | -68.79469 | 36801 ft | 461 kts | 71° |
| 2026-05-04 22:14 | -39.04399 | -68.72012 | 36801 ft | 458 kts | 74° |
| 2026-05-04 22:14 | -39.01918 | -68.64506 | 36801 ft | 458 kts | 74° |
| 2026-05-04 22:15 | -38.99411 | -68.56954 | 36801 ft | 458 kts | 74° |
| 2026-05-04 22:15 | -38.96910 | -68.49462 | 36801 ft | 458 kts | 74° |
| 2026-05-04 22:16 | -38.94397 | -68.41953 | 36802 ft | 458 kts | 74° |
| 2026-05-04 22:16 | -38.91872 | -68.34433 | 36801 ft | 458 kts | 74° |
| 2026-05-04 22:17 | -38.89358 | -68.26954 | 36796 ft | 459 kts | 74° |
| 2026-05-04 22:17 | -38.86793 | -68.19431 | 36799 ft | 459 kts | 74° |
| 2026-05-04 22:18 | -38.84254 | -68.11968 | 36801 ft | 459 kts | 74° |
| 2026-05-04 22:18 | -38.81707 | -68.04476 | 36801 ft | 459 kts | 74° |
| 2026-05-04 22:19 | -38.79174 | -67.97032 | 36801 ft | 458 kts | 74° |
| 2026-05-04 22:19 | -38.77008 | -67.90672 | 36801 ft | 463 kts | 74° |
| 2026-05-04 22:20 | -38.74392 | -67.82997 | 36801 ft | 474 kts | 73° |
| 2026-05-04 22:20 | -38.71711 | -67.75169 | 36803 ft | 484 kts | 73° |
| 2026-05-04 22:21 | -38.68979 | -67.67224 | 36801 ft | 489 kts | 73° |
| 2026-05-04 22:21 | -38.66236 | -67.59277 | 36801 ft | 489 kts | 73° |
| 2026-05-04 22:22 | -38.63509 | -67.51389 | 36801 ft | 489 kts | 73° |
| 2026-05-04 22:22 | -38.60753 | -67.43438 | 36801 ft | 488 kts | 73° |
| 2026-05-04 22:23 | -38.58006 | -67.35531 | 36801 ft | 489 kts | 73° |
| 2026-05-04 22:23 | -38.55248 | -67.27592 | 36800 ft | 489 kts | 73° |
| 2026-05-04 22:24 | -38.52483 | -67.19658 | 36801 ft | 489 kts | 73° |
| 2026-05-04 22:24 | -38.49712 | -67.11721 | 36802 ft | 487 kts | 72° |
| 2026-05-04 22:25 | -38.46974 | -67.03909 | 36802 ft | 484 kts | 71° |
| 2026-05-04 22:25 | -38.44240 | -66.96143 | 36802 ft | 480 kts | 70° |
| 2026-05-04 22:26 | -38.41494 | -66.88384 | 36801 ft | 479 kts | 70° |
| 2026-05-04 22:26 | -38.38773 | -66.80707 | 36801 ft | 478 kts | 70° |
| 2026-05-04 22:27 | -38.36032 | -66.72986 | 36801 ft | 478 kts | 70° |
| 2026-05-04 22:27 | -38.33205 | -66.65290 | 36801 ft | 480 kts | 67° |
| 2026-05-04 22:28 | -38.30076 | -66.57804 | 36801 ft | 481 kts | 66° |
| 2026-05-04 22:28 | -38.26924 | -66.50353 | 36801 ft | 481 kts | 66° |
| 2026-05-04 22:29 | -38.23775 | -66.42912 | 36801 ft | 480 kts | 66° |
| 2026-05-04 22:29 | -38.20598 | -66.35413 | 36801 ft | 480 kts | 66° |
| 2026-05-04 22:30 | -38.17430 | -66.27929 | 36800 ft | 481 kts | 65° |
| 2026-05-04 22:30 | -38.14284 | -66.20514 | 36800 ft | 481 kts | 65° |
| 2026-05-04 22:31 | -38.11098 | -66.13036 | 36802 ft | 481 kts | 65° |
| 2026-05-04 22:31 | -38.07933 | -66.05630 | 36807 ft | 481 kts | 65° |
| 2026-05-04 22:32 | -38.04741 | -65.98179 | 36815 ft | 480 kts | 65° |
| 2026-05-04 22:32 | -38.01551 | -65.90751 | 36821 ft | 480 kts | 65° |
| 2026-05-04 22:33 | -37.98368 | -65.83354 | 36825 ft | 480 kts | 65° |
| 2026-05-04 22:33 | -37.95167 | -65.75935 | 36827 ft | 480 kts | 65° |
| 2026-05-04 22:34 | -37.91982 | -65.68570 | 36828 ft | 480 kts | 65° |
| 2026-05-04 22:34 | -37.88756 | -65.61138 | 36825 ft | 481 kts | 65° |
| 2026-05-04 22:35 | -37.85521 | -65.53765 | 36826 ft | 482 kts | 65° |
| 2026-05-04 22:35 | -37.82268 | -65.46334 | 36827 ft | 482 kts | 65° |
| 2026-05-04 22:36 | -37.79036 | -65.38938 | 36827 ft | 482 kts | 65° |
| 2026-05-04 22:36 | -37.75817 | -65.31574 | 36827 ft | 482 kts | 65° |
| 2026-05-04 22:37 | -37.72572 | -65.24148 | 36827 ft | 482 kts | 65° |
| 2026-05-04 22:37 | -37.69342 | -65.16786 | 36827 ft | 482 kts | 65° |
| 2026-05-04 22:38 | -37.66079 | -65.09375 | 36827 ft | 482 kts | 65° |
| 2026-05-04 22:38 | -37.62907 | -65.02186 | 36827 ft | 482 kts | 64° |
| 2026-05-04 22:39 | -37.59710 | -64.94937 | 36828 ft | 481 kts | 63° |
| 2026-05-04 22:39 | -37.56437 | -64.87547 | 36828 ft | 480 kts | 62° |
| 2026-05-04 22:40 | -37.53217 | -64.80305 | 36829 ft | 476 kts | 62° |